Time;durP1;ratioP1;P1;durP2;ratioP2;P2;SDS_P1;SDS_P2;PMS_P1;PMS_P2;Temp;Humidity;BMP_temperature;BMP_pressure;BME280_temperature;BME280_humidity;BME280_pressure;Samples;Min_cycle;Max_cycle;Signal;HPM_P1;HPM_P2
2022/01/19 00:01:39;;;;;;;8.10;4.80;;;;;;;;;;5015606;28;20045;-75
2022/01/19 00:04:07;;;;;;;8.80;4.80;;;;;;;;;;5032562;28;20096;-74
2022/01/19 00:06:34;;;;;;;9.38;5.30;;;;;;;;;;5032733;28;20037;-76
2022/01/19 00:09:03;;;;;;;8.07;4.78;;;;;;;;;;5032787;28;20041;-74
2022/01/19 00:11:32;;;;;;;7.35;4.30;;;;;;;;;;5032902;28;20108;-74
2022/01/19 00:14:00;;;;;;;8.63;4.47;;;;;;;;;;5015195;28;20462;-73
2022/01/19 00:16:29;;;;;;;9.90;4.35;;;;;;;;;;5014946;28;20393;-74
2022/01/19 00:18:56;;;;;;;8.93;4.30;;;;;;;;;;4998678;28;20045;-74
2022/01/19 00:21:24;;;;;;;7.25;4.47;;;;;;;;;;5032418;28;20074;-76
2022/01/19 00:23:52;;;;;;;8.10;4.20;;;;;;;;;;5014681;28;20037;-76
2022/01/19 00:26:20;;;;;;;8.20;4.15;;;;;;;;;;5014910;28;20041;-73
2022/01/19 00:28:47;;;;;;;4.75;3.70;;;;;;;;;;5014463;28;20484;-75
2022/01/19 00:31:14;;;;;;;6.60;4.22;;;;;;;;;;5032527;28;20476;-74
2022/01/19 00:33:42;;;;;;;7.47;4.10;;;;;;;;;;5014618;28;20161;-74
2022/01/19 00:36:10;;;;;;;7.68;3.78;;;;;;;;;;5032352;28;20133;-74
2022/01/19 00:38:37;;;;;;;4.80;3.88;;;;;;;;;;5032289;28;20049;-76
2022/01/19 00:41:05;;;;;;;6.43;3.80;;;;;;;;;;5016600;28;20041;-76
2022/01/19 00:43:36;;;;;;;5.78;3.40;;;;;;;;;;5032755;28;20048;-76
2022/01/19 00:46:04;;;;;;;9.13;3.97;;;;;;;;;;5036487;28;20492;-76
2022/01/19 00:48:32;;;;;;;4.97;3.55;;;;;;;;;;5036209;28;20041;-76
2022/01/19 00:50:59;;;;;;;7.50;3.90;;;;;;;;;;5035975;28;20536;-75
2022/01/19 00:53:27;;;;;;;6.80;3.58;;;;;;;;;;5018022;28;20072;-76
2022/01/19 00:55:56;;;;;;;6.53;3.55;;;;;;;;;;5017984;28;20073;-75
2022/01/19 00:58:25;;;;;;;5.70;3.33;;;;;;;;;;5017912;28;20037;-74
2022/01/19 01:00:52;;;;;;;6.70;3.30;;;;;;;;;;5018545;28;20145;-76
2022/01/19 01:03:20;;;;;;;3.50;3.20;;;;;;;;;;5036157;28;20037;-73
2022/01/19 01:05:48;;;;;;;6.45;3.40;;;;;;;;;;5036553;28;20116;-74
2022/01/19 01:08:16;;;;;;;5.63;3.20;;;;;;;;;;5018797;28;20076;-76
2022/01/19 01:10:44;;;;;;;5.13;3.10;;;;;;;;;;5036046;28;20044;-73
2022/01/19 01:15:25;;;;;;;5.35;3.00;;;;;;;;;;5018597;28;20075;-73
2022/01/19 01:16:30;;;;;;;;;;;;;;;;;;5036231;28;20049;-72
2022/01/19 01:18:58;;;;;;;8.25;3.00;;;;;;;;;;5018332;28;19928;-75
2022/01/19 01:21:26;;;;;;;3.65;2.78;;;;;;;;;;5018016;28;20061;-76
2022/01/19 01:23:54;;;;;;;4.38;3.00;;;;;;;;;;5018218;28;20041;-76
2022/01/19 01:26:21;;;;;;;3.13;2.83;;;;;;;;;;5018259;28;20072;-76
2022/01/19 01:28:49;;;;;;;4.97;3.00;;;;;;;;;;5018045;28;20539;-73
2022/01/19 01:31:17;;;;;;;6.30;3.08;;;;;;;;;;5018799;28;20037;-74
2022/01/19 01:33:45;;;;;;;5.82;3.65;;;;;;;;;;5036196;28;20038;-74
2022/01/19 01:36:13;;;;;;;4.75;3.03;;;;;;;;;;5035701;28;20543;-74
2022/01/19 01:38:40;;;;;;;4.47;3.20;;;;;;;;;;5017719;28;20133;-72
2022/01/19 01:41:13;;;;;;;5.22;3.30;;;;;;;;;;5001644;28;20377;-74
2022/01/19 01:43:45;;;;;;;6.63;3.65;;;;;;;;;;5017865;28;20100;-75
2022/01/19 01:49:16;;;;;;;7.00;3.60;;;;;;;;;;5012901;28;20132;-76
2022/01/19 01:54:31;;;;;;;5.43;3.50;;;;;;;;;;5017843;28;20133;-76
2022/01/19 01:56:59;;;;;;;6.75;3.90;;;;;;;;;;5017517;28;20136;-74
2022/01/19 01:59:27;;;;;;;4.25;3.40;;;;;;;;;;5017722;28;20053;-76
2022/01/19 02:02:21;;;;;;;10.93;3.70;;;;;;;;;;5017570;28;20041;-74
2022/01/19 02:04:49;;;;;;;4.60;3.40;;;;;;;;;;5001190;28;20050;-73
2022/01/19 02:07:40;;;;;;;4.10;3.00;;;;;;;;;;5017743;28;20045;-74
2022/01/19 02:10:42;;;;;;;7.55;3.60;;;;;;;;;;5017629;28;20221;-72
2022/01/19 02:16:11;;;;;;;5.60;3.67;;;;;;;;;;5034714;28;20053;-74
2022/01/19 02:24:04;;;;;;;5.75;4.05;;;;;;;;;;5017391;28;20092;-73
2022/01/19 02:40:29;;;;;;;7.53;3.40;;;;;;;;;;4954165;29;20198;-72
2022/01/19 02:50:43;;;;;;;10.05;3.80;;;;;;;;;;4954297;29;20491;-73
2022/01/19 02:53:10;;;;;;;7.25;3.53;;;;;;;;;;4953892;29;20590;-73
2022/01/19 02:55:39;;;;;;;5.65;3.38;;;;;;;;;;4953604;29;20072;-76
2022/01/19 02:58:06;;;;;;;6.03;3.63;;;;;;;;;;4953027;29;20055;-72
2022/01/19 03:08:43;;;;;;;4.40;3.47;;;;;;;;;;5034373;28;20034;-76
2022/01/19 03:09:16;;;;;;;4.47;3.13;;;;;;;;;;5034094;28;20057;-76
2022/01/19 03:11:43;;;;;;;8.20;3.53;;;;;;;;;;5000183;28;20136;-76
2022/01/19 03:14:12;;;;;;;5.35;3.60;;;;;;;;;;5016560;28;20519;-74
2022/01/19 03:16:39;;;;;;;5.60;3.70;;;;;;;;;;5015657;28;20482;-76
2022/01/19 03:19:08;;;;;;;6.25;3.33;;;;;;;;;;5033861;28;20473;-76
2022/01/19 03:21:36;;;;;;;5.63;3.47;;;;;;;;;;5015907;28;20069;-74
2022/01/19 03:24:05;;;;;;;5.35;3.42;;;;;;;;;;5033713;28;20389;-74
2022/01/19 03:26:33;;;;;;;7.10;3.42;;;;;;;;;;5016287;28;20107;-76
2022/01/19 03:29:19;;;;;;;4.85;3.55;;;;;;;;;;5015662;28;20512;-72
2022/01/19 03:31:46;;;;;;;5.45;3.50;;;;;;;;;;4999730;28;20096;-75
2022/01/19 03:34:16;;;;;;;5.57;3.38;;;;;;;;;;4999576;28;20088;-72
2022/01/19 03:36:47;;;;;;;;;;;;;;;;;;5011787;28;20121;-73
2022/01/19 03:39:15;;;;;;;4.95;3.28;;;;;;;;;;5012350;28;20411;-76
2022/01/19 03:41:42;;;;;;;4.78;3.40;;;;;;;;;;4995561;28;20391;-76
2022/01/19 03:44:11;;;;;;;4.00;3.33;;;;;;;;;;5012365;28;20038;-74
2022/01/19 03:46:54;;;;;;;9.25;3.42;;;;;;;;;;4980021;28;20065;-76
2022/01/19 03:49:26;;;;;;;8.40;3.35;;;;;;;;;;5011987;28;20046;-76
2022/01/19 03:51:58;;;;;;;4.28;3.22;;;;;;;;;;5023537;28;20047;-75
2022/01/19 03:54:38;;;;;;;3.88;3.17;;;;;;;;;;5015333;28;20056;-76
2022/01/19 03:57:07;;;;;;;5.22;3.75;;;;;;;;;;5015502;28;20432;-76
2022/01/19 03:59:36;;;;;;;5.20;3.35;;;;;;;;;;5015331;28;20132;-76
2022/01/19 04:02:07;;;;;;;6.63;3.80;;;;;;;;;;4995583;28;20524;-72
2022/01/19 04:04:50;;;;;;;9.25;3.65;;;;;;;;;;5011879;28;20132;-75
2022/01/19 04:07:32;;;;;;;8.70;3.45;;;;;;;;;;5012212;28;20054;-75
2022/01/19 04:10:00;;;;;;;6.05;3.72;;;;;;;;;;5012266;28;20482;-74
2022/01/19 04:12:54;;;;;;;7.55;3.60;;;;;;;;;;4995666;28;20073;-74
2022/01/19 04:15:23;;;;;;;;;;;;;;;;;;4995580;28;20050;-73
2022/01/19 04:17:54;;;;;;;5.75;3.38;;;;;;;;;;4995594;28;20373;-74
2022/01/19 04:20:25;;;;;;;7.45;3.75;;;;;;;;;;4995561;28;20045;-74
2022/01/19 04:22:56;;;;;;;5.07;3.70;;;;;;;;;;5011745;28;20058;-75
2022/01/19 04:25:24;;;;;;;8.68;3.95;;;;;;;;;;5013172;28;20048;-75
2022/01/19 04:27:52;;;;;;;4.95;3.60;;;;;;;;;;4995234;28;20049;-75
2022/01/19 04:30:21;;;;;;;7.20;3.63;;;;;;;;;;4995315;28;20050;-76
2022/01/19 04:35:45;;;;;;;5.25;3.65;;;;;;;;;;4995267;28;20050;-73
2022/01/19 04:54:47;;;;;;;5.60;3.80;;;;;;;;;;5012685;28;20044;-73
2022/01/19 05:06:12;;;;;;;10.63;3.90;;;;;;;;;;4952350;29;20422;-76
2022/01/19 05:13:54;;;;;;;9.40;4.40;;;;;;;;;;4951912;28;20082;-73
2022/01/19 05:16:28;;;;;;;6.20;3.75;;;;;;;;;;4951661;29;20161;-76
2022/01/19 05:18:56;;;;;;;11.98;4.05;;;;;;;;;;4936333;29;20083;-76
2022/01/19 05:21:23;;;;;;;7.47;3.58;;;;;;;;;;4936275;29;20051;-72
2022/01/19 05:24:18;;;;;;;9.00;3.72;;;;;;;;;;4951944;28;20376;-74
2022/01/19 05:27:06;;;;;;;6.70;3.85;;;;;;;;;;4941094;29;20047;-72
2022/01/19 05:29:35;;;;;;;6.57;3.85;;;;;;;;;;4939531;29;20053;-76
2022/01/19 05:32:04;;;;;;;7.07;3.60;;;;;;;;;;4939551;29;20047;-74
2022/01/19 05:34:36;;;;;;;;;;;;;;;;;;4970098;28;20050;-73
2022/01/19 05:37:39;;;;;;;5.80;3.70;;;;;;;;;;4974531;28;19961;-75
2022/01/19 05:40:18;;;;;;;7.53;3.67;;;;;;;;;;4993019;28;20132;-74
2022/01/19 05:42:53;;;;;;;8.10;3.50;;;;;;;;;;4998446;28;20452;-73
2022/01/19 05:45:21;;;;;;;6.35;3.58;;;;;;;;;;5000488;28;20062;-76
2022/01/19 05:47:49;;;;;;;3.45;3.10;;;;;;;;;;5018189;28;20133;-75
2022/01/19 05:50:16;;;;;;;4.85;3.50;;;;;;;;;;5017585;28;20045;-75
2022/01/19 05:52:52;;;;;;;11.77;4.30;;;;;;;;;;5017170;28;20516;-75
2022/01/19 05:55:20;;;;;;;10.57;3.72;;;;;;;;;;5001860;28;20052;-73
2022/01/19 05:57:48;;;;;;;4.82;3.10;;;;;;;;;;5017544;28;20051;-76
2022/01/19 06:00:16;;;;;;;11.18;3.95;;;;;;;;;;5018049;28;20048;-75
2022/01/19 06:02:49;;;;;;;5.80;3.30;;;;;;;;;;5036086;28;20124;-76
2022/01/19 06:05:47;;;;;;;5.00;3.17;;;;;;;;;;5016924;28;20045;-73
2022/01/19 06:11:01;;;;;;;5.50;3.53;;;;;;;;;;5017508;28;20049;-74
2022/01/19 06:13:29;;;;;;;9.27;3.72;;;;;;;;;;5017500;28;20460;-72
2022/01/19 06:15:57;;;;;;;9.18;3.60;;;;;;;;;;5016840;28;20145;-76
2022/01/19 06:18:25;;;;;;;9.25;3.90;;;;;;;;;;5017461;28;20111;-74
2022/01/19 06:20:52;;;;;;;5.43;3.35;;;;;;;;;;5017646;28;20116;-72
2022/01/19 06:23:26;;;;;;;8.85;4.05;;;;;;;;;;5017326;28;20496;-72
2022/01/19 06:26:04;;;;;;;7.78;3.50;;;;;;;;;;5017616;28;20116;-74
2022/01/19 06:28:32;;;;;;;10.30;3.72;;;;;;;;;;5016984;28;20042;-74
2022/01/19 06:31:08;;;;;;;7.90;3.67;;;;;;;;;;5016987;28;20044;-73
2022/01/19 06:33:39;;;;;;;9.13;3.92;;;;;;;;;;5015351;28;20046;-74
2022/01/19 06:36:08;;;;;;;8.25;4.40;;;;;;;;;;4999707;28;20041;-74
2022/01/19 06:38:47;;;;;;;15.43;4.55;;;;;;;;;;5016474;28;20072;-73
2022/01/19 06:41:25;;;;;;;8.65;4.18;;;;;;;;;;5001812;28;20053;-73
2022/01/19 06:43:53;;;;;;;9.88;4.70;;;;;;;;;;5017041;28;20045;-75
2022/01/19 06:46:21;;;;;;;5.18;3.90;;;;;;;;;;5016826;28;20040;-75
2022/01/19 06:48:48;;;;;;;5.60;4.13;;;;;;;;;;5017048;28;20044;-73
2022/01/19 06:51:17;;;;;;;12.50;4.95;;;;;;;;;;5017224;28;20042;-75
2022/01/19 06:53:52;;;;;;;8.35;4.80;;;;;;;;;;5000986;28;20107;-72
2022/01/19 06:56:28;;;;;;;11.40;5.10;;;;;;;;;;5016683;28;20046;-72
2022/01/19 06:59:18;;;;;;;10.27;4.90;;;;;;;;;;5033095;28;20119;-74
2022/01/19 07:02:06;;;;;;;13.80;5.45;;;;;;;;;;5016318;28;20060;-73
2022/01/19 07:04:49;;;;;;;8.48;5.10;;;;;;;;;;5016194;28;20124;-72
2022/01/19 07:07:32;;;;;;;10.43;4.97;;;;;;;;;;5002483;28;20091;-76
2022/01/19 07:10:03;;;;;;;36.75;6.28;;;;;;;;;;5033650;28;20037;-73
2022/01/19 07:12:31;;;;;;;38.80;7.80;;;;;;;;;;4999771;28;20077;-72
2022/01/19 07:15:00;;;;;;;39.92;6.90;;;;;;;;;;5032628;28;20115;-69
2022/01/19 07:17:28;;;;;;;12.32;5.07;;;;;;;;;;5015308;28;20068;-73
2022/01/19 07:19:55;;;;;;;20.10;5.75;;;;;;;;;;5015920;28;20061;-74
2022/01/19 07:22:23;;;;;;;13.27;4.75;;;;;;;;;;5016020;28;20124;-74
2022/01/19 07:24:58;;;;;;;6.95;4.22;;;;;;;;;;5015396;28;20076;-76
2022/01/19 07:27:26;;;;;;;9.75;5.10;;;;;;;;;;5016155;28;20049;-72
2022/01/19 07:29:54;;;;;;;7.70;4.28;;;;;;;;;;5015914;28;20124;-74
2022/01/19 07:32:24;;;;;;;10.07;4.70;;;;;;;;;;5015592;28;20068;-70
2022/01/19 07:34:51;;;;;;;56.58;9.75;;;;;;;;;;5015693;28;20096;-75
2022/01/19 07:37:19;;;;;;;126.13;14.50;;;;;;;;;;5015483;28;20065;-76
2022/01/19 07:39:46;;;;;;;18.23;5.43;;;;;;;;;;5033464;28;20072;-76
2022/01/19 07:42:14;;;;;;;22.25;5.88;;;;;;;;;;5033265;28;20481;-71
2022/01/19 07:45:00;;;;;;;23.55;5.72;;;;;;;;;;5033406;28;20091;-72
2022/01/19 07:47:28;;;;;;;55.25;8.68;;;;;;;;;;5033452;28;20086;-72
2022/01/19 07:50:25;;;;;;;23.73;6.10;;;;;;;;;;4927729;28;20058;-73
2022/01/19 07:52:57;;;;;;;9.13;4.60;;;;;;;;;;5015188;28;20134;-73
2022/01/19 07:55:40;;;;;;;8.80;3.53;;;;;;;;;;5001476;28;20068;-75
2022/01/19 07:58:35;;;;;;;7.55;3.15;;;;;;;;;;5002888;28;20132;-73
2022/01/19 08:01:12;;;;;;;31.13;3.97;;;;;;;;;;5015075;28;20505;-73
2022/01/19 08:04:02;;;;;;;8.43;3.50;;;;;;;;;;5015231;28;20389;-73
2022/01/19 08:06:35;;;;;;;18.92;8.70;;;;;;;;;;5015293;28;20046;-72
2022/01/19 08:09:03;;;;;;;9.80;4.90;;;;;;;;;;5015056;28;20049;-71
2022/01/19 08:11:32;;;;;;;16.48;4.90;;;;;;;;;;5015090;28;20045;-73
2022/01/19 08:14:24;;;;;;;11.77;4.93;;;;;;;;;;5014659;28;20049;-71
2022/01/19 08:16:53;;;;;;;11.70;5.60;;;;;;;;;;4998189;28;20053;-72
2022/01/19 08:19:22;;;;;;;10.85;5.28;;;;;;;;;;4998684;28;20205;-76
2022/01/19 08:21:50;;;;;;;11.80;6.25;;;;;;;;;;5014995;28;20045;-73
2022/01/19 08:24:18;;;;;;;14.07;5.38;;;;;;;;;;5015079;28;20095;-71
2022/01/19 08:26:49;;;;;;;11.68;5.07;;;;;;;;;;5014833;28;20489;-73
2022/01/19 08:29:22;;;;;;;8.07;4.90;;;;;;;;;;5014564;28;20049;-74
2022/01/19 08:31:54;;;;;;;12.13;6.18;;;;;;;;;;5014981;28;20050;-73
2022/01/19 08:34:44;;;;;;;9.15;3.05;;;;;;;;;;5016100;28;20052;-71
2022/01/19 08:37:25;;;;;;;13.05;6.65;;;;;;;;;;5032536;28;20056;-73
2022/01/19 08:40:00;;;;;;;9.05;5.07;;;;;;;;;;4999332;28;20060;-76
2022/01/19 08:42:29;;;;;;;11.63;6.00;;;;;;;;;;5014495;28;20072;-75
2022/01/19 08:44:57;;;;;;;14.70;5.30;;;;;;;;;;4998578;28;20058;-76
2022/01/19 08:47:31;;;;;;;10.07;3.80;;;;;;;;;;5015022;28;20083;-75
2022/01/19 08:50:25;;;;;;;6.93;3.70;;;;;;;;;;5032211;28;20392;-75
2022/01/19 08:53:10;;;;;;;12.43;4.00;;;;;;;;;;5000639;28;20069;-75
2022/01/19 08:55:47;;;;;;;15.88;6.95;;;;;;;;;;5014549;28;20096;-74
2022/01/19 08:58:15;;;;;;;18.08;7.93;;;;;;;;;;5014458;28;20064;-74
2022/01/19 09:00:44;;;;;;;16.92;6.70;;;;;;;;;;5015136;28;20485;-75
2022/01/19 09:03:13;;;;;;;14.48;5.53;;;;;;;;;;5018389;28;20069;-74
2022/01/19 09:05:41;;;;;;;15.27;6.68;;;;;;;;;;5036057;28;20042;-75
2022/01/19 09:08:09;;;;;;;10.35;5.38;;;;;;;;;;5036619;28;20045;-75
2022/01/19 09:10:39;;;;;;;11.00;5.80;;;;;;;;;;5036119;28;20038;-75
2022/01/19 09:13:09;;;;;;;14.02;6.38;;;;;;;;;;5036213;28;20071;-75
2022/01/19 09:15:37;;;;;;;13.40;6.95;;;;;;;;;;5018464;28;20093;-76
2022/01/19 09:18:04;;;;;;;13.82;6.40;;;;;;;;;;5035683;28;20061;-75
2022/01/19 09:20:32;;;;;;;11.75;6.28;;;;;;;;;;5036306;28;20046;-74
2022/01/19 09:23:02;;;;;;;13.95;5.40;;;;;;;;;;5036158;28;20056;-75
2022/01/19 09:25:30;;;;;;;7.68;4.40;;;;;;;;;;5018257;28;20140;-73
2022/01/19 09:27:57;;;;;;;11.50;4.82;;;;;;;;;;5018889;28;20038;-73
2022/01/19 09:30:25;;;;;;;11.00;4.80;;;;;;;;;;5035828;28;20041;-73
2022/01/19 09:33:07;;;;;;;8.32;4.82;;;;;;;;;;5035718;28;20065;-74
2022/01/19 09:35:52;;;;;;;10.95;3.60;;;;;;;;;;5018127;28;20049;-73
2022/01/19 09:38:21;;;;;;;5.82;3.20;;;;;;;;;;5017796;28;20053;-75
2022/01/19 09:40:49;;;;;;;4.65;3.38;;;;;;;;;;5035359;28;20406;-75
2022/01/19 09:43:18;;;;;;;5.97;4.05;;;;;;;;;;5035723;28;20132;-76
2022/01/19 09:45:46;;;;;;;4.45;3.00;;;;;;;;;;5017372;28;20046;-76
2022/01/19 09:48:14;;;;;;;5.80;2.70;;;;;;;;;;5035780;28;20481;-75
2022/01/19 09:50:42;;;;;;;10.70;4.25;;;;;;;;;;5018144;28;20477;-75
2022/01/19 09:53:10;;;;;;;7.95;4.00;;;;;;;;;;5035126;28;20061;-73
2022/01/19 09:55:41;;;;;;;6.93;2.47;;;;;;;;;;5001403;28;20058;-73
2022/01/19 09:58:09;;;;;;;5.03;2.83;;;;;;;;;;5035218;28;20092;-76
2022/01/19 10:00:37;;;;;;;3.97;2.28;;;;;;;;;;5018034;28;20240;-74
2022/01/19 10:03:14;;;;;;;3.88;2.65;;;;;;;;;;5035075;28;20049;-73
2022/01/19 10:05:55;;;;;;;7.25;3.45;;;;;;;;;;5034645;28;20404;-71
2022/01/19 10:08:45;;;;;;;4.80;3.33;;;;;;;;;;5035022;28;20053;-73
2022/01/19 10:11:15;;;;;;;8.55;4.00;;;;;;;;;;5035079;28;20044;-75
2022/01/19 10:19:20;;;;;;;11.18;3.40;;;;;;;;;;5035110;28;20447;-74
2022/01/19 10:22:02;;;;;;;5.03;3.08;;;;;;;;;;5034740;28;20041;-75
2022/01/19 10:24:34;;;;;;;7.03;3.23;;;;;;;;;;5017056;28;20048;-73
2022/01/19 10:27:19;;;;;;;6.18;3.15;;;;;;;;;;5034557;28;20040;-74
2022/01/19 10:29:49;;;;;;;6.05;3.03;;;;;;;;;;4997499;28;20052;-74
2022/01/19 10:32:16;;;;;;;10.52;3.60;;;;;;;;;;4996623;28;20042;-74
2022/01/19 10:34:44;;;;;;;15.75;4.65;;;;;;;;;;5014620;28;20042;-76
2022/01/19 10:37:12;;;;;;;7.63;3.85;;;;;;;;;;5014739;28;20046;-73
2022/01/19 10:39:46;;;;;;;7.57;3.85;;;;;;;;;;5014289;28;20042;-76
2022/01/19 10:42:17;;;;;;;6.30;3.47;;;;;;;;;;4996998;28;20042;-73
2022/01/19 10:44:56;;;;;;;7.78;3.67;;;;;;;;;;4997020;28;20048;-74
2022/01/19 10:48:00;;;;;;;10.52;4.15;;;;;;;;;;5013068;28;20121;-76
2022/01/19 10:50:29;;;;;;;6.85;3.13;;;;;;;;;;5011629;28;20420;-74
2022/01/19 10:53:03;;;;;;;7.47;3.40;;;;;;;;;;5014149;28;20065;-76
2022/01/19 10:55:49;;;;;;;7.90;3.30;;;;;;;;;;5014494;28;20045;-76
2022/01/19 10:58:17;;;;;;;4.78;2.92;;;;;;;;;;5014441;28;20464;-73
2022/01/19 11:00:48;;;;;;;6.00;2.85;;;;;;;;;;4996173;28;20052;-75
2022/01/19 11:03:18;;;;;;;6.50;2.87;;;;;;;;;;5014262;28;20501;-73
2022/01/19 11:05:54;;;;;;;6.18;2.80;;;;;;;;;;5013756;28;20168;-75
2022/01/19 11:08:24;;;;;;;5.60;3.10;;;;;;;;;;5014162;28;20038;-73
2022/01/19 11:10:53;;;;;;;6.75;3.13;;;;;;;;;;5013896;28;20038;-73
2022/01/19 11:15:55;;;;;;;7.95;2.65;;;;;;;;;;5015631;28;20057;-76
2022/01/19 11:18:25;;;;;;;6.28;3.30;;;;;;;;;;5013366;28;20042;-74
2022/01/19 11:20:54;;;;;;;4.85;2.80;;;;;;;;;;5013868;28;20485;-75
2022/01/19 11:23:25;;;;;;;8.65;2.90;;;;;;;;;;4996512;28;20044;-76
2022/01/19 11:25:56;;;;;;;7.95;3.70;;;;;;;;;;5013544;28;20038;-76
2022/01/19 11:28:24;;;;;;;7.60;3.38;;;;;;;;;;5012933;28;20136;-75
2022/01/19 11:30:53;;;;;;;4.70;3.22;;;;;;;;;;4996259;28;20129;-74
2022/01/19 11:33:26;;;;;;;9.52;3.45;;;;;;;;;;4996368;28;20424;-74
2022/01/19 11:35:54;;;;;;;9.18;4.25;;;;;;;;;;5013609;28;20052;-72
2022/01/19 11:38:33;;;;;;;10.23;4.07;;;;;;;;;;5013603;28;20042;-74
2022/01/19 11:41:22;;;;;;;7.47;3.30;;;;;;;;;;4996107;28;20120;-72
2022/01/19 11:43:57;;;;;;;10.23;3.45;;;;;;;;;;4995832;28;20124;-74
2022/01/19 11:46:33;;;;;;;9.20;3.97;;;;;;;;;;4995763;28;20132;-72
2022/01/19 11:49:01;;;;;;;6.85;3.50;;;;;;;;;;5013372;28;20038;-73
2022/01/19 11:51:31;;;;;;;5.60;3.47;;;;;;;;;;4995957;28;20050;-73
2022/01/19 11:53:59;;;;;;;6.95;3.05;;;;;;;;;;5013037;28;20093;-72
2022/01/19 11:56:26;;;;;;;8.07;3.70;;;;;;;;;;4979632;28;20046;-74
2022/01/19 11:59:05;;;;;;;9.35;3.50;;;;;;;;;;4995341;28;20042;-73
2022/01/19 12:01:32;;;;;;;5.65;3.30;;;;;;;;;;5013327;28;20042;-73
2022/01/19 12:04:20;;;;;;;5.00;3.08;;;;;;;;;;5012775;28;20045;-74
2022/01/19 12:06:48;;;;;;;8.43;3.38;;;;;;;;;;5012913;28;20042;-75
2022/01/19 12:09:17;;;;;;;5.95;2.75;;;;;;;;;;5012697;28;20128;-74
2022/01/19 12:11:51;;;;;;;5.90;3.50;;;;;;;;;;5012987;28;20118;-74
2022/01/19 12:16:54;;;;;;;5.22;2.90;;;;;;;;;;5012673;28;20050;-74
2022/01/19 12:19:23;;;;;;;9.75;3.60;;;;;;;;;;4995754;28;20121;-73
2022/01/19 12:21:54;;;;;;;5.93;3.05;;;;;;;;;;5012955;28;20050;-76
2022/01/19 12:24:36;;;;;;;7.00;3.35;;;;;;;;;;5012653;28;20120;-72
2022/01/19 12:27:23;;;;;;;5.18;2.80;;;;;;;;;;5012323;28;20485;-75
2022/01/19 12:30:03;;;;;;;6.15;3.28;;;;;;;;;;5012229;28;20048;-74
2022/01/19 12:32:40;;;;;;;7.18;2.80;;;;;;;;;;5012354;28;20536;-74
2022/01/19 12:35:11;;;;;;;5.63;2.90;;;;;;;;;;4995091;28;20053;-75
2022/01/19 12:37:42;;;;;;;6.47;2.97;;;;;;;;;;4994616;28;20142;-73
2022/01/19 12:40:19;;;;;;;5.28;2.97;;;;;;;;;;5012666;28;20523;-75
2022/01/19 12:42:55;;;;;;;7.03;3.10;;;;;;;;;;4995249;28;20597;-74
2022/01/19 12:45:27;;;;;;;6.25;2.78;;;;;;;;;;5012171;28;20441;-73
2022/01/19 12:47:56;;;;;;;7.18;3.08;;;;;;;;;;5011708;28;20034;-74
2022/01/19 12:50:31;;;;;;;6.30;3.10;;;;;;;;;;4995996;28;20064;-72
2022/01/19 12:53:00;;;;;;;5.97;3.50;;;;;;;;;;4995168;28;20063;-72
2022/01/19 12:55:30;;;;;;;8.02;2.95;;;;;;;;;;5012669;28;20049;-75
2022/01/19 12:57:58;;;;;;;5.10;2.95;;;;;;;;;;5011621;28;20489;-72
2022/01/19 13:00:31;;;;;;;6.88;3.10;;;;;;;;;;4994601;28;20144;-74
2022/01/19 13:02:59;;;;;;;8.55;3.40;;;;;;;;;;4994621;28;20049;-74
2022/01/19 13:05:31;;;;;;;8.88;3.67;;;;;;;;;;5012023;28;20042;-73
2022/01/19 13:08:03;;;;;;;7.82;3.78;;;;;;;;;;5012447;28;20050;-75
2022/01/19 13:15:41;;;;;;;8.57;3.70;;;;;;;;;;5010748;28;20080;-75
2022/01/19 13:18:09;;;;;;;8.38;3.80;;;;;;;;;;5004281;28;20072;-75
2022/01/19 13:20:37;;;;;;;8.00;3.15;;;;;;;;;;5006955;28;20042;-75
2022/01/19 13:23:04;;;;;;;4.57;3.00;;;;;;;;;;5001485;28;20113;-75
2022/01/19 13:25:33;;;;;;;5.38;3.20;;;;;;;;;;4982733;28;20045;-75
2022/01/19 13:28:02;;;;;;;6.90;3.17;;;;;;;;;;4999443;28;20049;-75
2022/01/19 13:30:31;;;;;;;7.00;3.40;;;;;;;;;;4999532;28;20042;-73
2022/01/19 13:32:58;;;;;;;6.80;3.35;;;;;;;;;;4985251;28;20052;-74
2022/01/19 13:35:27;;;;;;;8.15;4.00;;;;;;;;;;5010922;28;20057;-75
2022/01/19 13:37:56;;;;;;;10.57;3.40;;;;;;;;;;4985524;28;20047;-72
2022/01/19 13:40:30;;;;;;;10.40;3.35;;;;;;;;;;5008088;28;20038;-75
2022/01/19 13:42:59;;;;;;;7.88;3.28;;;;;;;;;;4991845;28;20041;-75
2022/01/19 13:50:46;;;;;;;6.68;2.90;;;;;;;;;;5004448;28;20073;-73
2022/01/19 13:53:15;;;;;;;4.13;2.63;;;;;;;;;;5003241;28;20037;-72
2022/01/19 13:55:42;;;;;;;11.13;3.50;;;;;;;;;;5000992;28;20052;-75
2022/01/19 13:58:11;;;;;;;9.75;3.35;;;;;;;;;;5008599;28;20048;-74
2022/01/19 14:00:55;;;;;;;6.95;3.20;;;;;;;;;;5000485;28;20065;-73
2022/01/19 14:03:25;;;;;;;8.13;3.08;;;;;;;;;;5003839;28;20042;-74
2022/01/19 14:05:54;;;;;;;4.72;3.03;;;;;;;;;;5011609;28;20038;-73
2022/01/19 14:08:32;;;;;;;7.32;3.00;;;;;;;;;;4994648;28;20429;-74
2022/01/19 14:11:01;;;;;;;8.18;3.15;;;;;;;;;;4995067;28;20073;-73
2022/01/19 14:13:29;;;;;;;4.88;2.83;;;;;;;;;;4994557;28;20065;-73
2022/01/19 14:16:17;;;;;;;6.45;2.88;;;;;;;;;;4984174;28;20078;-72
2022/01/19 14:19:05;;;;;;;4.82;2.83;;;;;;;;;;4978459;28;20145;-72
2022/01/19 14:21:32;;;;;;;6.75;3.03;;;;;;;;;;5022489;28;20182;-74
2022/01/19 14:24:00;;;;;;;6.50;2.63;;;;;;;;;;5018616;28;20042;-74
2022/01/19 14:26:28;;;;;;;7.03;2.53;;;;;;;;;;5002659;28;20034;-74
2022/01/19 14:29:14;;;;;;;6.03;3.00;;;;;;;;;;5017688;28;20401;-74
2022/01/19 14:31:57;;;;;;;5.47;3.13;;;;;;;;;;5016601;28;20052;-72
2022/01/19 14:34:40;;;;;;;6.57;3.00;;;;;;;;;;5008060;28;20405;-74
2022/01/19 14:37:08;;;;;;;4.85;2.80;;;;;;;;;;5006008;28;20038;-72
2022/01/19 14:39:49;;;;;;;6.50;3.38;;;;;;;;;;5016434;28;20037;-74
2022/01/19 14:42:19;;;;;;;8.82;3.58;;;;;;;;;;4997112;28;20042;-77
2022/01/19 14:45:02;;;;;;;8.63;3.45;;;;;;;;;;5014591;28;20069;-75
2022/01/19 14:47:36;;;;;;;;;;;;;;;;;;4995590;28;20481;-72
2022/01/19 14:50:23;;;;;;;4.57;3.00;;;;;;;;;;5014567;28;20032;-75
2022/01/19 14:52:52;;;;;;;8.85;3.95;;;;;;;;;;5009604;28;20050;-74
2022/01/19 14:55:21;;;;;;;8.93;3.60;;;;;;;;;;4996162;28;20042;-73
2022/01/19 14:57:50;;;;;;;12.77;3.53;;;;;;;;;;4996511;28;20056;-73
2022/01/19 15:00:19;;;;;;;6.60;3.17;;;;;;;;;;5013293;28;20394;-74
2022/01/19 15:02:49;;;;;;;6.93;3.35;;;;;;;;;;5013385;28;20038;-72
2022/01/19 15:05:20;;;;;;;7.65;3.10;;;;;;;;;;4995694;28;20042;-72
2022/01/19 15:07:47;;;;;;;8.50;3.40;;;;;;;;;;5014349;28;20041;-74
2022/01/19 15:10:15;;;;;;;7.22;3.20;;;;;;;;;;5013863;28;20049;-73
2022/01/19 15:12:43;;;;;;;8.57;3.60;;;;;;;;;;4996864;28;20125;-73
2022/01/19 15:15:10;;;;;;;8.13;3.53;;;;;;;;;;5014053;28;20413;-73
2022/01/19 15:17:38;;;;;;;6.72;3.40;;;;;;;;;;5008647;28;20394;-76
2022/01/19 15:20:07;;;;;;;7.65;3.28;;;;;;;;;;5006311;28;20390;-75
2022/01/19 15:22:35;;;;;;;6.45;3.67;;;;;;;;;;4996255;28;20046;-72
2022/01/19 15:25:03;;;;;;;10.77;3.78;;;;;;;;;;5013458;28;20045;-73
2022/01/19 15:27:31;;;;;;;5.50;3.17;;;;;;;;;;4996662;28;20121;-74
2022/01/19 15:29:59;;;;;;;8.02;3.40;;;;;;;;;;5012340;28;20505;-73
2022/01/19 15:32:26;;;;;;;4.55;2.90;;;;;;;;;;5013979;28;20038;-71
2022/01/19 15:34:53;;;;;;;10.90;3.75;;;;;;;;;;5013531;28;20038;-73
2022/01/19 15:37:21;;;;;;;13.75;4.00;;;;;;;;;;5012093;28;20136;-75
2022/01/19 15:39:50;;;;;;;11.27;3.55;;;;;;;;;;5013781;28;20038;-72
2022/01/19 15:42:17;;;;;;;7.22;3.40;;;;;;;;;;4995436;28;20042;-72
2022/01/19 15:44:45;;;;;;;9.20;4.18;;;;;;;;;;5008142;28;20042;-73
2022/01/19 15:47:14;;;;;;;8.63;3.53;;;;;;;;;;4993895;28;20053;-73
2022/01/19 15:49:42;;;;;;;7.40;4.45;;;;;;;;;;4976833;28;20038;-73
2022/01/19 15:52:10;;;;;;;8.27;4.57;;;;;;;;;;4974719;28;20446;-77
2022/01/19 15:54:37;;;;;;;7.50;4.22;;;;;;;;;;4974998;28;20049;-76
2022/01/19 15:57:05;;;;;;;12.48;4.88;;;;;;;;;;4986243;28;20042;-73
2022/01/19 15:59:32;;;;;;;10.02;5.50;;;;;;;;;;4976335;28;20050;-73
2022/01/19 16:02:01;;;;;;;13.50;5.30;;;;;;;;;;4979113;28;20081;-72
2022/01/19 16:04:29;;;;;;;12.63;4.70;;;;;;;;;;4970106;28;20536;-75
2022/01/19 16:06:57;;;;;;;8.45;5.00;;;;;;;;;;5006990;28;20042;-72
2022/01/19 16:09:29;;;;;;;13.75;5.22;;;;;;;;;;4999595;28;20038;-73
2022/01/19 16:11:57;;;;;;;;;;;;;;;;;;5006570;28;20441;-73
2022/01/19 16:14:26;;;;;;;6.78;5.20;;;;;;;;;;4988716;28;20395;-74
2022/01/19 16:16:54;;;;;;;10.48;4.57;;;;;;;;;;5018102;28;20050;-73
2022/01/19 16:19:22;;;;;;;12.32;5.22;;;;;;;;;;5006598;28;20516;-76
2022/01/19 16:21:51;;;;;;;11.90;5.10;;;;;;;;;;5025836;28;20038;-73
2022/01/19 16:27:06;;;;;;;8.82;4.82;;;;;;;;;;5012365;28;20536;-71
2022/01/19 16:29:34;;;;;;;8.85;4.65;;;;;;;;;;5022406;28;20088;-72
2022/01/19 16:32:03;;;;;;;11.82;5.78;;;;;;;;;;5032099;28;20120;-76
2022/01/19 16:34:30;;;;;;;12.23;5.43;;;;;;;;;;5040564;28;20128;-72
2022/01/19 16:36:59;;;;;;;16.05;5.35;;;;;;;;;;5029894;28;20694;-72
2022/01/19 16:39:27;;;;;;;12.52;6.10;;;;;;;;;;5020533;28;20037;-74
2022/01/19 16:42:01;;;;;;;13.40;5.55;;;;;;;;;;5023376;28;20133;-74
2022/01/19 16:44:35;;;;;;;20.60;5.95;;;;;;;;;;5020157;28;20048;-74
2022/01/19 16:47:02;;;;;;;8.68;5.55;;;;;;;;;;5025857;28;20025;-72
2022/01/19 16:49:31;;;;;;;14.02;6.20;;;;;;;;;;5047958;28;20107;-75
2022/01/19 16:52:00;;;;;;;13.63;5.75;;;;;;;;;;5035149;28;20037;-72